Date,TemperatureHighF,TemperatureAvgF,TemperatureLowF,DewpointHighF,DewpointAvgF,DewpointLowF,HumidityHigh,HumidityAvg,HumidityLow,PressureMaxIn,PressureMinIn,WindSpeedMaxMPH,WindSpeedAvgMPH,GustSpeedMaxMPH,PrecipitationSumIn
2013-10-1,76,73,72,70,68,68,88,83,78,0.00,40.00,6,5,0,0.00
2013-10-2,86,76,67,70,67,65,95,76,55,0.00,40.00,11,5,0,0.00
2013-10-3,88,77,67,73,70,66,99,80,51,0.00,40.00,9,4,0,0.00
2013-10-4,91,78,70,76,71,68,99,79,47,0.00,40.00,11,4,0,0.00
2013-10-5,88,77,68,75,71,67,98,82,57,0.00,40.00,10,5,0,0.00
2013-10-6,90,78,71,77,72,68,99,83,49,0.00,40.00,11,4,0,0.00
2013-10-7,83,76,72,78,74,71,98,91,77,0.00,40.00,11,5,0,0.00
2013-10-8,85,76,72,76,74,71,100,93,71,0.00,40.00,11,5,0,0.55
2013-10-9,75,70,66,71,67,65,97,92,79,0.00,40.00,10,7,0,0.00
2013-10-10,85,73,63,68,65,62,97,79,50,0.00,40.00,8,4,0,0.00
2013-10-11,86,70,62,70,65,61,99,85,48,0.00,40.00,6,2,0,0.00
2013-10-12,86,73,61,71,63,60,99,74,42,0.00,40.00,6,2,0,0.00
2013-10-13,85,74,62,68,61,-100,97,70,41,0.00,40.00,8,3,0,0.00
2013-10-14,84,73,66,70,67,65,98,83,52,0.00,40.00,12,6,0,0.00
2013-10-15,78,72,67,72,69,65,97,90,79,0.00,40.00,8,4,0,0.00
2013-10-16,87,76,69,73,70,65,98,83,50,0.00,40.00,7,3,0,0.00
2013-10-17,89,76,67,75,70,66,99,82,47,0.00,40.00,5,2,0,0.00
2013-10-18,89,78,68,75,70,68,98,80,51,0.00,40.00,7,3,0,0.00
2013-10-19,89,78,69,76,72,69,98,82,53,0.00,40.00,8,3,0,0.00
2013-10-20,87,76,71,75,70,-100,98,85,62,0.00,40.00,10,4,0,0.00
2013-10-21,90,77,71,77,73,68,98,87,54,0.00,40.00,13,4,0,0.03
2013-10-22,90,79,72,77,72,68,99,82,49,0.00,40.00,11,4,0,0.00
2013-10-23,80,72,63,71,62,51,98,74,37,0.00,40.00,8,4,0,0.03